Terminal Aerodrome Forecast
Issued by NWS

Home | Current Version | Previous Version | Text Only | Print | Product List | Glossary On
Versions: 1 2 3 4 5 6 7 8 9 10 11 12 13 14
000
FTUS45 KABQ 220500 RRA
TAFAEG
TAF
KAEG 220547Z 2206/2306 VRB04KT P6SM BKN120
     FM221200 VRB04KT P6SM SCT130
     FM221900 15009KT P6SM SCT130
     FM230000 13012G18KT P6SM VCTS SCT080CB
      TEMPO 2301/2304 -TSRA BKN070CB=

USA.gov is the U.S. government's official web portal to all federal, state and local government web resources and services.